< Typhoon 196221 1962 Season Typhoon 196223 >
Typhoon 196222 (EMMA)
General InformationTrack Information on Google Maps || Disaster Info.ResourceGoogle EarthGE AnimationAtom FeedGeoJSON
Detalied Best Track (Time Zone = UTC)
Year Month Day Hour Lat. Long. Pressure (hPa) Wind (kt) Class Image Chart
1962 9 28 12 9.5 161.0 1008 0 2 -- Chart
1962 9 28 18 9.6 160.5 1006 0 2 -- Chart
1962 9 29 00 10.0 160.0 1008 0 2 -- Chart
1962 9 29 06 10.5 159.4 1006 0 2 -- Chart
1962 9 29 12 11.0 159.0 1008 0 2 -- Chart
1962 9 29 18 11.7 159.6 1008 0 2 -- Chart
1962 9 30 00 12.5 159.9 1008 0 2 -- Chart
1962 9 30 06 13.0 159.0 1008 0 2 -- Chart
1962 9 30 12 13.5 158.0 1008 0 2 -- Chart
1962 9 30 18 14.2 156.6 1004 0 2 -- Chart
1962 10 1 00 14.7 155.2 1004 0 2 -- Chart
1962 10 1 06 15.2 153.4 1004 0 2 -- Chart
1962 10 1 12 15.5 151.5 1002 0 2 -- Chart
1962 10 1 18 15.6 149.7 996 0 9 -- Chart
1962 10 2 00 15.6 148.3 990 0 9 -- Chart
1962 10 2 06 15.5 146.9 980 0 9 -- Chart
1962 10 2 12 15.8 146.9 980 0 9 -- Chart
1962 10 2 18 15.9 147.0 980 0 9 -- Chart
1962 10 3 00 16.3 147.0 980 0 9 -- Chart
1962 10 3 06 16.8 147.0 970 0 9 -- Chart
1962 10 3 12 17.5 146.7 970 0 9 -- Chart
1962 10 3 18 18.2 146.5 960 0 9 -- Chart
1962 10 4 00 18.8 146.5 960 0 9 -- Chart
1962 10 4 06 19.6 146.1 950 0 9 -- Chart
1962 10 4 12 20.6 145.7 935 0 9 -- Chart
1962 10 4 18 21.4 145.3 920 0 9 -- Chart
1962 10 5 00 22.4 144.9 905 0 9 -- Chart
1962 10 5 06 23.3 144.7 890 0 9 -- Chart
1962 10 5 12 23.6 144.4 910 0 9 -- Chart
1962 10 5 18 23.1 144.6 920 0 9 -- Chart
1962 10 6 00 23.1 145.1 925 0 9 -- Chart
1962 10 6 06 23.6 145.3 930 0 9 -- Chart
1962 10 6 12 23.5 145.8 930 0 9 -- Chart
1962 10 6 18 23.7 146.3 935 0 9 -- Chart
1962 10 7 00 23.9 146.6 940 0 9 -- Chart
1962 10 7 06 24.4 147.5 940 0 9 -- Chart
1962 10 7 12 24.1 147.9 940 0 9 -- Chart
1962 10 7 18 23.9 148.5 940 0 9 -- Chart
1962 10 8 00 23.8 149.2 940 0 9 -- Chart
1962 10 8 06 23.7 149.9 940 0 9 -- Chart
1962 10 8 12 23.7 150.7 940 0 9 -- Chart
1962 10 8 18 23.5 151.7 940 0 9 -- Chart
1962 10 9 00 23.7 152.6 930 0 9 -- Chart
1962 10 9 06 24.6 153.8 930 0 9 -- Chart
1962 10 9 12 25.3 154.5 930 0 9 -- Chart
1962 10 9 18 26.4 155.6 945 0 9 -- Chart
1962 10 10 00 27.5 157.0 945 0 9 -- Chart
1962 10 10 06 29.2 158.4 950 0 9 -- Chart
1962 10 10 12 31.1 159.5 960 0 9 -- Chart
1962 10 10 18 33.3 160.4 960 0 9 -- Chart
1962 10 11 00 34.9 163.0 960 0 9 -- Chart
1962 10 11 06 37.0 165.0 960 0 9 -- Chart
1962 10 11 12 38.4 168.1 970 0 9 -- Chart
1962 10 11 18 42.5 170.0 970 0 9 -- Chart
1962 10 12 00 46.0 171.0 970 0 9 -- Chart
1962 10 12 06 47.9 172.1 965 0 6 -- Chart
1962 10 12 12 49.4 173.1 950 0 6 -- Chart
1962 10 12 18 51.0 175.0 950 0 6 -- Chart
1962 10 13 00 52.0 176.9 954 0 6 -- Chart
1962 10 13 06 53.0 181.0 952 0 6 -- Chart
Japan Meteorological Agency Best Track Data | Correction Date : 1990-10-17
< Typhoon 196221 1962 Season Typhoon 196223 >

Help